Oakham, Massachusetts
Current Conditions -  °F | °C
As of 10:20 AM on Thursday 23 Oct 2014 (Local Time) from KORH Reporting Station
Moderate Rain Moderate Rain  
Wind Chill: 39°   Ceiling: 900
Heat Index: 47°   Visibility: 3mi
Dew Point: 45°   Wind: 22mph
Humidity: 93%   Direction: 20°NNE
Pressure: 29.64"   Gusts: 39mph
Location:  42.35°N, 72.05°W
Report Text: KORH 231420Z 02019G34KT 3SM RA BR BKN009 BKN046 OVC070 08/07 A2964 RMK AO2 PK WND 02035/1401 P0007 T00830072
Loading
Personal Weather Stations






























Interactive Weather Map
Tropical Storm Tracking
New forecast layout! Learn more

10-Day Weather Forecast

Advertisements
Track Severe Weather on mobile